Time;durP1;ratioP1;P1;durP2;ratioP2;P2;SDS_P1;SDS_P2;PMS_P1;PMS_P2;Temp;Humidity;BMP_temperature;BMP_pressure;BME280_temperature;BME280_humidity;BME280_pressure;Samples;Min_cycle;Max_cycle;Signal;HPM_P1;HPM_P2
2022/03/20 00:02:00;;;;;;;28.37;21.37;;;2.50;56.00;;;;;;4992140;28;20220;-63
2022/03/20 00:04:26;;;;;;;27.33;21.57;;;2.50;58.30;;;;;;4990922;28;20273;-63
2022/03/20 00:06:51;;;;;;;26.13;22.03;;;2.40;58.00;;;;;;4992088;28;20230;-62
2022/03/20 00:09:17;;;;;;;30.70;21.60;;;2.40;58.70;;;;;;4991125;28;20184;-64
2022/03/20 00:11:42;;;;;;;28.17;21.80;;;2.30;61.90;;;;;;4990622;28;20188;-63
2022/03/20 00:14:08;;;;;;;25.23;20.77;;;2.20;63.00;;;;;;4987372;28;20244;-64
2022/03/20 00:16:33;;;;;;;32.23;22.93;;;2.20;64.50;;;;;;4988553;28;20196;-64
2022/03/20 00:18:59;;;;;;;26.00;21.63;;;2.10;64.30;;;;;;4990653;28;20263;-64
2022/03/20 00:21:24;;;;;;;30.80;22.70;;;2.10;63.80;;;;;;4991236;28;20188;-64
2022/03/20 00:23:50;;;;;;;27.37;22.50;;;2.00;64.60;;;;;;4991188;28;20192;-64
2022/03/20 00:26:18;;;;;;;25.80;22.00;;;1.90;70.00;;;;;;4989290;28;20784;-63
2022/03/20 00:28:44;;;;;;;28.60;22.90;;;1.90;71.60;;;;;;4973341;28;20192;-64
2022/03/20 00:31:09;;;;;;;28.10;21.88;;;1.80;70.70;;;;;;4990981;28;20235;-64
2022/03/20 00:33:35;;;;;;;26.33;22.10;;;1.80;73.30;;;;;;4991560;28;20255;-64
2022/03/20 00:36:00;;;;;;;27.13;21.70;;;1.60;73.30;;;;;;4981466;28;20196;-64
2022/03/20 00:38:26;;;;;;;25.80;21.80;;;1.60;73.00;;;;;;4990447;28;20207;-64
2022/03/20 00:40:52;;;;;;;30.73;23.80;;;1.50;75.20;;;;;;4991248;28;20169;-63
2022/03/20 00:43:17;;;;;;;31.23;22.50;;;1.50;77.30;;;;;;4992127;28;20220;-64
2022/03/20 00:45:43;;;;;;;25.87;20.80;;;1.50;77.40;;;;;;4999863;28;20717;-64
2022/03/20 00:48:09;;;;;;;27.50;22.07;;;1.40;79.50;;;;;;4989852;28;20310;-65
2022/03/20 00:50:35;;;;;;;25.73;21.93;;;1.50;80.80;;;;;;4990755;28;20192;-64
2022/03/20 00:53:01;;;;;;;25.95;21.02;;;1.40;79.90;;;;;;4990203;28;20517;-64
2022/03/20 00:55:27;;;;;;;29.60;21.87;;;1.40;84.40;;;;;;4989935;28;20805;-64
2022/03/20 00:57:52;;;;;;;24.73;21.00;;;1.40;86.40;;;;;;4988609;28;20234;-64
2022/03/20 01:00:18;;;;;;;28.10;20.77;;;1.40;90.20;;;;;;4989118;28;20234;-64
2022/03/20 01:02:45;;;;;;;23.20;19.47;;;1.30;90.90;;;;;;4988131;28;20192;-64
2022/03/20 01:05:11;;;;;;;26.65;20.67;;;1.30;91.80;;;;;;4992107;28;20463;-64
2022/03/20 01:07:37;;;;;;;26.88;19.73;;;1.30;91.20;;;;;;4988666;28;20176;-63
2022/03/20 01:10:04;;;;;;;24.52;18.83;;;1.30;91.50;;;;;;4990494;28;20192;-63
2022/03/20 01:12:32;;;;;;;23.60;19.88;;;1.30;91.00;;;;;;4989082;28;20212;-64
2022/03/20 01:14:58;;;;;;;23.00;18.13;;;1.30;90.30;;;;;;4989938;28;20236;-64
2022/03/20 01:17:24;;;;;;;25.23;19.43;;;1.30;87.70;;;;;;4988251;28;20259;-64
2022/03/20 01:19:51;;;;;;;25.70;18.47;;;1.40;89.30;;;;;;4990149;28;20435;-65
2022/03/20 01:22:16;;;;;;;24.50;18.92;;;1.40;87.90;;;;;;4988482;28;20176;-64
2022/03/20 01:24:42;;;;;;;25.20;18.63;;;1.40;85.00;;;;;;4990121;28;20184;-64
2022/03/20 01:27:09;;;;;;;21.45;18.50;;;1.50;84.60;;;;;;4990080;28;20647;-64
2022/03/20 01:29:34;;;;;;;22.08;17.70;;;1.50;84.20;;;;;;4989874;28;20203;-64
2022/03/20 01:32:00;;;;;;;23.37;18.73;;;1.50;83.20;;;;;;4989016;28;20188;-64
2022/03/20 01:34:26;;;;;;;20.97;17.57;;;1.60;83.70;;;;;;4990063;28;20445;-64
2022/03/20 01:36:52;;;;;;;22.98;18.70;;;1.60;81.80;;;;;;4987796;28;20562;-64
2022/03/20 01:39:18;;;;;;;20.30;17.73;;;1.60;80.50;;;;;;4990570;28;20180;-64
2022/03/20 01:41:46;;;;;;;24.33;18.63;;;1.60;79.30;;;;;;4989809;28;20227;-64
2022/03/20 01:44:11;;;;;;;24.42;17.90;;;1.60;80.00;;;;;;4969569;28;20251;-64
2022/03/20 01:46:37;;;;;;;21.97;18.83;;;1.60;79.90;;;;;;4986524;28;20212;-64
2022/03/20 01:49:03;;;;;;;23.37;18.40;;;1.60;78.70;;;;;;4993453;28;20954;-63
2022/03/20 01:54:14;;;;;;;22.27;18.65;;;1.60;79.90;;;;;;4989180;28;20304;-64
2022/03/20 01:56:49;;;;;;;23.35;18.55;;;1.60;79.10;;;;;;4988941;28;20196;-63
2022/03/20 01:59:16;;;;;;;25.00;19.15;;;1.60;79.60;;;;;;4989457;28;20219;-64
2022/03/20 02:01:42;;;;;;;20.88;16.98;;;1.60;82.60;;;;;;4988513;28;20184;-64
2022/03/20 02:04:12;;;;;;;21.27;17.85;;;1.60;80.90;;;;;;4995917;28;20907;-63
2022/03/20 02:06:39;;;;;;;22.05;16.80;;;1.50;83.70;;;;;;4973676;28;20242;-63
2022/03/20 02:09:04;;;;;;;25.50;19.08;;;1.50;83.50;;;;;;4976572;28;20181;-63
2022/03/20 02:11:30;;;;;;;22.83;17.60;;;1.50;81.80;;;;;;4970768;28;20193;-63
2022/03/20 02:13:56;;;;;;;24.93;17.90;;;1.50;80.80;;;;;;4985913;28;20326;-63
2022/03/20 02:16:21;;;;;;;21.57;17.37;;;1.50;82.00;;;;;;4993551;28;20246;-63
2022/03/20 02:18:48;;;;;;;24.23;17.80;;;1.40;83.10;;;;;;4992094;28;20223;-64
2022/03/20 02:21:15;;;;;;;21.88;16.75;;;1.50;84.70;;;;;;4993569;28;20219;-64
2022/03/20 02:23:44;;;;;;;22.23;18.75;;;1.50;85.00;;;;;;4992078;28;20198;-63
2022/03/20 02:26:10;;;;;;;21.65;17.60;;;1.40;83.70;;;;;;4992605;28;20248;-64
2022/03/20 02:28:35;;;;;;;19.87;16.90;;;1.50;82.30;;;;;;4991358;28;20597;-65
2022/03/20 02:31:01;;;;;;;23.63;18.30;;;1.50;79.90;;;;;;4992963;28;20184;-65
2022/03/20 02:33:29;;;;;;;21.77;18.25;;;1.60;77.60;;;;;;4993355;28;20216;-65
2022/03/20 02:35:55;;;;;;;21.80;16.98;;;1.60;77.20;;;;;;4992266;28;20188;-65
2022/03/20 02:38:21;;;;;;;23.20;17.30;;;1.70;77.70;;;;;;4993850;28;20215;-65
2022/03/20 02:40:54;;;;;;;21.70;17.85;;;1.80;77.60;;;;;;4992745;28;20526;-65
2022/03/20 02:43:20;;;;;;;21.23;18.08;;;1.80;76.40;;;;;;4993451;28;20573;-63
2022/03/20 02:45:47;;;;;;;20.23;16.58;;;1.80;77.30;;;;;;4992873;28;20200;-63
2022/03/20 02:48:12;;;;;;;21.17;17.35;;;1.80;76.50;;;;;;4992914;28;20283;-64
2022/03/20 02:50:38;;;;;;;21.30;17.40;;;1.70;76.60;;;;;;4991445;28;20270;-63
2022/03/20 02:53:11;;;;;;;21.87;17.80;;;1.70;76.00;;;;;;4993841;28;20235;-64
2022/03/20 02:55:38;;;;;;;23.83;17.50;;;1.60;78.20;;;;;;4990974;28;20188;-64
2022/03/20 02:58:10;;;;;;;23.85;16.83;;;1.60;77.40;;;;;;4992272;28;20194;-64
2022/03/20 03:00:37;;;;;;;22.35;16.70;;;1.60;78.70;;;;;;4997796;28;20196;-63
2022/03/20 03:03:04;;;;;;;23.50;17.05;;;1.60;77.60;;;;;;4991908;28;20595;-64
2022/03/20 03:05:31;;;;;;;20.95;16.50;;;1.50;78.60;;;;;;4991193;28;20273;-63
2022/03/20 03:10:58;;;;;;;20.77;17.15;;;1.40;77.10;;;;;;4990571;28;20187;-64
2022/03/20 03:13:24;;;;;;;24.05;17.25;;;1.40;77.30;;;;;;4991542;28;20355;-64
2022/03/20 03:15:55;;;;;;;23.00;18.05;;;1.40;76.20;;;;;;4992356;28;20200;-64
2022/03/20 03:18:22;;;;;;;22.00;17.40;;;1.30;78.90;;;;;;4991261;28;20645;-65
2022/03/20 03:20:48;;;;;;;21.98;17.05;;;1.30;77.80;;;;;;4990400;28;20191;-63
2022/03/20 03:23:14;;;;;;;23.55;17.80;;;1.30;78.70;;;;;;4970672;28;20247;-64
2022/03/20 03:25:40;;;;;;;22.42;17.73;;;1.20;80.30;;;;;;4987029;28;20265;-64
2022/03/20 03:28:09;;;;;;;21.33;17.10;;;1.20;80.20;;;;;;4992436;28;20192;-64
2022/03/20 03:30:36;;;;;;;18.65;16.45;;;1.20;77.50;;;;;;4991324;28;20310;-65
2022/03/20 03:33:01;;;;;;;24.38;17.75;;;1.20;76.70;;;;;;4990216;28;20903;-65
2022/03/20 03:35:42;;;;;;;24.07;18.50;;;1.10;77.40;;;;;;4992508;28;20189;-65
2022/03/20 03:38:10;;;;;;;19.98;16.90;;;1.10;78.20;;;;;;4989830;28;20188;-65
2022/03/20 03:40:37;;;;;;;23.63;17.60;;;1.10;77.40;;;;;;4992148;28;21172;-65
2022/03/20 03:43:03;;;;;;;22.38;16.98;;;1.00;78.10;;;;;;4991662;28;20192;-65
2022/03/20 03:45:29;;;;;;;23.30;16.92;;;1.00;79.10;;;;;;4991545;28;20208;-65
2022/03/20 03:47:55;;;;;;;19.80;16.75;;;1.10;78.50;;;;;;4992393;28;20263;-66
2022/03/20 03:50:21;;;;;;;23.00;16.83;;;1.10;80.10;;;;;;4988601;28;20722;-64
2022/03/20 03:52:47;;;;;;;19.93;17.27;;;1.00;81.00;;;;;;4989935;28;21810;-65
2022/03/20 03:55:14;;;;;;;22.10;18.30;;;1.00;82.70;;;;;;4987586;28;20193;-64
2022/03/20 03:57:47;;;;;;;20.00;17.30;;;0.90;81.90;;;;;;4971687;28;20783;-64
2022/03/20 04:00:14;;;;;;;24.48;16.92;;;0.90;82.90;;;;;;4989828;28;20207;-64
2022/03/20 04:02:40;;;;;;;27.92;16.98;;;0.90;84.40;;;;;;4993696;28;20215;-64
2022/03/20 04:05:06;;;;;;;17.67;15.30;;;0.80;85.90;;;;;;4990624;28;20231;-64
2022/03/20 04:07:32;;;;;;;22.75;17.02;;;0.80;84.30;;;;;;4991305;28;20173;-65
2022/03/20 04:09:59;;;;;;;20.90;15.88;;;0.70;85.40;;;;;;4970035;28;20209;-65
2022/03/20 04:12:25;;;;;;;19.17;16.23;;;0.70;83.80;;;;;;4989118;28;20192;-65
2022/03/20 04:14:50;;;;;;;21.60;16.40;;;0.70;84.90;;;;;;5011058;28;20227;-65
2022/03/20 04:17:16;;;;;;;22.40;17.93;;;0.80;85.70;;;;;;4990735;28;20200;-65
2022/03/20 04:19:42;;;;;;;17.80;15.60;;;0.80;87.00;;;;;;4984836;28;20207;-65
2022/03/20 04:22:08;;;;;;;20.63;16.03;;;0.70;86.70;;;;;;4973324;28;20703;-65
2022/03/20 04:24:36;;;;;;;18.80;15.93;;;0.70;87.10;;;;;;4990983;28;20182;-65
2022/03/20 04:27:01;;;;;;;20.00;16.67;;;0.70;86.40;;;;;;4972919;28;20219;-65
2022/03/20 04:29:30;;;;;;;19.53;16.50;;;0.70;87.00;;;;;;4988944;28;20192;-65
2022/03/20 04:31:55;;;;;;;22.33;16.80;;;0.60;89.40;;;;;;4974164;28;20181;-65
2022/03/20 04:34:22;;;;;;;21.07;16.80;;;0.60;91.80;;;;;;4990605;28;20184;-64
2022/03/20 04:36:48;;;;;;;20.27;16.83;;;0.60;92.10;;;;;;4991357;28;20462;-64
2022/03/20 04:39:14;;;;;;;24.20;16.80;;;0.50;92.70;;;;;;4980842;28;20249;-65
2022/03/20 04:41:41;;;;;;;20.60;15.23;;;0.50;92.10;;;;;;4987076;28;20550;-65
2022/03/20 04:44:09;;;;;;;18.52;15.48;;;0.50;90.50;;;;;;4991377;28;20192;-65
2022/03/20 04:46:35;;;;;;;19.27;16.30;;;0.60;90.10;;;;;;4989965;28;20196;-65
2022/03/20 04:59:57;;;;;;;20.48;16.08;;;0.70;85.40;;;;;;4989304;28;20194;-64
2022/03/20 05:02:23;;;;;;;21.37;16.33;;;0.70;84.00;;;;;;4990025;28;20188;-65
2022/03/20 05:04:49;;;;;;;18.38;14.73;;;0.80;79.60;;;;;;4987834;28;20195;-64
2022/03/20 05:07:15;;;;;;;19.43;15.43;;;1.00;78.30;;;;;;4990073;28;20547;-65
2022/03/20 05:15:10;;;;;;;19.35;15.02;;;1.20;73.60;;;;;;4991183;28;20239;-65
2022/03/20 05:17:36;;;;;;;18.58;15.88;;;1.20;71.90;;;;;;4969265;28;20193;-65
2022/03/20 05:20:03;;;;;;;19.00;15.73;;;1.30;72.70;;;;;;4991994;28;20192;-64
2022/03/20 05:22:28;;;;;;;19.58;15.63;;;1.30;70.80;;;;;;4990022;28;20451;-65
2022/03/20 05:24:54;;;;;;;16.83;13.93;;;1.40;70.00;;;;;;4990889;28;20639;-64
2022/03/20 05:27:20;;;;;;;20.47;15.10;;;1.40;71.10;;;;;;4990217;28;20199;-64
2022/03/20 05:29:45;;;;;;;17.67;15.03;;;1.50;71.50;;;;;;4988120;28;20199;-65
2022/03/20 05:32:11;;;;;;;16.63;14.73;;;1.60;70.10;;;;;;4989636;28;20195;-64
2022/03/20 05:34:39;;;;;;;20.43;15.33;;;1.70;70.10;;;;;;4989846;28;20187;-64
2022/03/20 05:37:07;;;;;;;15.93;14.05;;;1.70;68.80;;;;;;4986027;28;20188;-64
2022/03/20 05:39:33;;;;;;;18.58;14.88;;;1.80;68.50;;;;;;4988967;28;20209;-65
2022/03/20 05:41:58;;;;;;;19.27;15.53;;;1.80;66.90;;;;;;4990227;28;20384;-64
2022/03/20 05:44:26;;;;;;;19.97;15.57;;;1.90;65.30;;;;;;4989515;28;20478;-64
2022/03/20 05:46:53;;;;;;;19.27;15.05;;;2.00;65.20;;;;;;4990073;28;20212;-65
2022/03/20 05:49:20;;;;;;;20.13;15.20;;;2.10;64.60;;;;;;4988613;28;20196;-64
2022/03/20 05:51:46;;;;;;;18.15;14.55;;;2.20;64.60;;;;;;4988971;28;20682;-64
2022/03/20 05:54:13;;;;;;;19.13;15.30;;;2.30;65.90;;;;;;4989698;28;20216;-64
2022/03/20 05:59:23;;;;;;;20.30;15.77;;;2.50;64.10;;;;;;4984284;28;20215;-64
2022/03/20 06:01:52;;;;;;;21.07;15.90;;;2.50;62.50;;;;;;4986978;28;20224;-64
2022/03/20 06:04:21;;;;;;;19.58;15.48;;;2.60;62.30;;;;;;4990689;28;20910;-64
2022/03/20 06:06:50;;;;;;;19.17;15.60;;;2.80;60.70;;;;;;4988494;28;20702;-63
2022/03/20 06:09:15;;;;;;;18.00;15.40;;;2.90;60.20;;;;;;4988594;28;20199;-64
2022/03/20 06:11:42;;;;;;;18.40;15.60;;;3.00;59.40;;;;;;4994849;28;20184;-64
2022/03/20 06:14:08;;;;;;;19.85;15.85;;;3.10;59.90;;;;;;4989693;28;20227;-64
2022/03/20 06:16:35;;;;;;;18.27;16.08;;;3.20;58.60;;;;;;4987127;28;20189;-65
2022/03/20 06:19:00;;;;;;;19.15;15.68;;;3.40;57.80;;;;;;4988174;28;20564;-64
2022/03/20 06:21:26;;;;;;;18.70;15.83;;;3.50;56.10;;;;;;4989090;28;20195;-64
2022/03/20 06:23:56;;;;;;;18.40;16.10;;;3.70;55.40;;;;;;4988095;28;20195;-64
2022/03/20 06:26:23;;;;;;;17.70;15.68;;;3.90;55.00;;;;;;4989954;28;20682;-64
2022/03/20 06:28:49;;;;;;;17.35;15.32;;;4.00;54.00;;;;;;4989496;28;20723;-64
2022/03/20 06:31:16;;;;;;;17.17;15.38;;;4.20;53.10;;;;;;4986199;28;20188;-64
2022/03/20 06:33:43;;;;;;;21.05;16.10;;;4.30;52.40;;;;;;4987287;28;20199;-63
2022/03/20 06:36:10;;;;;;;18.02;16.00;;;4.50;52.50;;;;;;4987403;28;20191;-64
2022/03/20 06:38:36;;;;;;;18.45;16.50;;;4.60;50.70;;;;;;4989209;28;20193;-64
2022/03/20 06:41:03;;;;;;;20.67;16.05;;;4.80;50.20;;;;;;4990941;28;20573;-64
2022/03/20 06:43:29;;;;;;;20.15;16.23;;;4.80;49.80;;;;;;4987820;28;20570;-64
2022/03/20 06:45:56;;;;;;;19.15;16.77;;;5.00;49.40;;;;;;4980431;28;20212;-63
2022/03/20 06:48:22;;;;;;;17.35;15.30;;;5.10;48.80;;;;;;4988816;28;20181;-64
2022/03/20 06:50:48;;;;;;;19.60;16.70;;;5.10;48.50;;;;;;4988803;28;20577;-63
2022/03/20 06:53:14;;;;;;;20.60;16.00;;;5.30;47.90;;;;;;4970609;28;20186;-64
2022/03/20 06:55:40;;;;;;;19.50;17.03;;;5.30;47.40;;;;;;4987061;28;20223;-64
2022/03/20 06:58:05;;;;;;;20.63;17.20;;;5.40;46.80;;;;;;4974568;28;20475;-65
2022/03/20 07:00:31;;;;;;;19.23;16.80;;;5.50;47.00;;;;;;4993082;28;20471;-65
2022/03/20 07:03:00;;;;;;;17.67;15.55;;;5.60;46.30;;;;;;4991995;28;20192;-64
2022/03/20 07:05:26;;;;;;;17.20;15.32;;;5.60;45.90;;;;;;4987380;28;20212;-64
2022/03/20 07:07:52;;;;;;;17.20;15.40;;;5.70;44.90;;;;;;4988690;28;20212;-64
2022/03/20 07:10:22;;;;;;;18.20;15.27;;;5.70;45.20;;;;;;4992982;28;20204;-63
2022/03/20 07:12:50;;;;;;;16.75;14.95;;;5.70;44.30;;;;;;4989313;28;20444;-62
2022/03/20 07:15:18;;;;;;;18.75;15.38;;;5.90;44.20;;;;;;4991114;28;20251;-62
2022/03/20 07:17:47;;;;;;;20.33;16.05;;;6.00;44.20;;;;;;4993703;28;20539;-63
2022/03/20 07:20:13;;;;;;;17.17;15.38;;;6.10;43.50;;;;;;4973557;28;20259;-64
2022/03/20 07:22:40;;;;;;;16.17;14.47;;;6.10;42.50;;;;;;4992447;28;20200;-63
2022/03/20 07:30:34;;;;;;;18.50;16.60;;;6.30;41.10;;;;;;4989959;28;20314;-63
2022/03/20 07:33:00;;;;;;;16.27;14.60;;;6.40;41.70;;;;;;4989982;28;20275;-64
2022/03/20 07:35:25;;;;;;;17.23;15.40;;;6.50;40.30;;;;;;4989212;28;20192;-64
2022/03/20 07:37:51;;;;;;;19.33;15.90;;;6.60;39.60;;;;;;4989074;28;20196;-63
2022/03/20 07:40:17;;;;;;;17.80;15.77;;;6.70;40.10;;;;;;4993858;28;20188;-64
2022/03/20 07:42:43;;;;;;;15.50;14.00;;;6.80;40.50;;;;;;4992260;28;20463;-64
2022/03/20 07:45:09;;;;;;;17.33;15.13;;;6.90;39.80;;;;;;4989726;28;20275;-64
2022/03/20 07:47:35;;;;;;;17.43;15.63;;;7.00;39.30;;;;;;4991343;28;20581;-64
2022/03/20 07:50:02;;;;;;;16.70;14.60;;;7.10;39.30;;;;;;4993752;28;20477;-64
2022/03/20 07:52:28;;;;;;;16.77;15.07;;;7.20;39.90;;;;;;4992431;28;20436;-62
2022/03/20 07:54:54;;;;;;;16.27;14.47;;;7.30;40.10;;;;;;4971427;28;20446;-61
2022/03/20 07:57:20;;;;;;;16.33;14.20;;;7.40;37.80;;;;;;4990700;28;20443;-62
2022/03/20 07:59:46;;;;;;;16.88;15.13;;;7.50;36.90;;;;;;4993170;28;20180;-63
2022/03/20 08:02:12;;;;;;;17.13;14.60;;;7.60;36.80;;;;;;4969626;28;20185;-62
2022/03/20 08:04:38;;;;;;;15.80;14.20;;;7.70;36.60;;;;;;4972376;28;20189;-62
2022/03/20 08:07:05;;;;;;;16.40;14.90;;;7.80;35.90;;;;;;4975463;28;20483;-62
2022/03/20 08:09:31;;;;;;;15.23;13.63;;;7.90;35.10;;;;;;4964788;28;20443;-62
2022/03/20 08:11:57;;;;;;;15.77;14.37;;;8.00;34.90;;;;;;4966124;28;20436;-63
2022/03/20 08:14:23;;;;;;;15.60;14.03;;;8.10;33.50;;;;;;4965324;28;20827;-62
2022/03/20 08:16:50;;;;;;;17.00;15.30;;;8.30;33.40;;;;;;4966534;28;20183;-63
2022/03/20 08:19:19;;;;;;;15.70;13.60;;;8.40;34.10;;;;;;4970756;28;20447;-62
2022/03/20 08:21:47;;;;;;;15.17;13.67;;;8.50;33.00;;;;;;4976296;28;20435;-61
2022/03/20 08:24:14;;;;;;;15.80;14.20;;;8.70;32.70;;;;;;4964352;28;20432;-63
2022/03/20 08:26:40;;;;;;;16.27;14.30;;;8.90;32.60;;;;;;4971225;28;20499;-62
2022/03/20 08:29:10;;;;;;;15.50;13.90;;;9.10;32.10;;;;;;4964860;28;20487;-62
2022/03/20 08:31:36;;;;;;;15.37;13.77;;;9.40;31.10;;;;;;4971034;28;21229;-63
2022/03/20 08:34:02;;;;;;;15.00;13.03;;;9.60;30.90;;;;;;4972523;28;20443;-63
2022/03/20 08:36:27;;;;;;;15.70;14.10;;;9.90;30.50;;;;;;4973469;28;20489;-64
2022/03/20 08:38:53;;;;;;;14.77;13.27;;;10.30;29.50;;;;;;4972015;28;20494;-62
2022/03/20 08:41:19;;;;;;;14.80;13.30;;;10.70;28.40;;;;;;4970988;28;20193;-63
2022/03/20 08:43:45;;;;;;;15.50;14.10;;;11.10;28.60;;;;;;4973712;28;20203;-62
2022/03/20 08:46:10;;;;;;;14.20;12.80;;;11.50;27.50;;;;;;4973747;28;20471;-63
2022/03/20 08:48:36;;;;;;;14.30;12.80;;;11.90;26.00;;;;;;4967162;28;20264;-63
2022/03/20 08:51:02;;;;;;;14.97;13.67;;;12.20;26.40;;;;;;4966947;28;20181;-62
2022/03/20 08:53:28;;;;;;;16.60;15.10;;;12.80;25.50;;;;;;4967623;28;20181;-62
2022/03/20 08:55:53;;;;;;;15.40;13.63;;;13.30;25.30;;;;;;4951831;28;20196;-61
2022/03/20 08:58:19;;;;;;;15.07;13.47;;;13.50;24.20;;;;;;4970223;28;20212;-62
2022/03/20 09:00:44;;;;;;;16.20;14.60;;;13.80;23.50;;;;;;4984662;28;20181;-62
2022/03/20 09:03:10;;;;;;;16.80;15.13;;;14.00;22.30;;;;;;4990547;28;20203;-61
2022/03/20 09:05:37;;;;;;;15.53;14.10;;;13.90;22.20;;;;;;4988943;28;20327;-63
2022/03/20 09:08:03;;;;;;;14.70;13.20;;;14.20;22.50;;;;;;4987762;28;20432;-62
2022/03/20 09:10:29;;;;;;;15.50;14.10;;;14.50;22.70;;;;;;4993742;28;20445;-62
2022/03/20 09:12:55;;;;;;;15.13;13.70;;;14.70;22.20;;;;;;4986301;28;20627;-62
2022/03/20 09:15:22;;;;;;;15.10;13.70;;;14.90;22.20;;;;;;4989620;28;20237;-63
2022/03/20 09:20:34;;;;;;;15.97;14.23;;;15.40;21.00;;;;;;4988898;28;20487;-62
2022/03/20 09:23:01;;;;;;;14.80;13.40;;;15.60;20.30;;;;;;4982071;28;20556;-61
2022/03/20 09:25:26;;;;;;;16.07;14.57;;;15.70;20.70;;;;;;4988191;28;20550;-61
2022/03/20 09:27:52;;;;;;;15.60;14.20;;;15.90;20.00;;;;;;4988610;28;20539;-64
2022/03/20 09:30:21;;;;;;;15.30;13.80;;;15.90;19.90;;;;;;4989236;28;20651;-62
2022/03/20 09:32:48;;;;;;;15.80;14.33;;;16.10;19.50;;;;;;4986427;28;20436;-62
2022/03/20 09:35:15;;;;;;;15.80;14.40;;;16.30;20.10;;;;;;4973876;28;20447;-62
2022/03/20 09:37:40;;;;;;;15.33;13.93;;;16.40;19.10;;;;;;4989031;28;20509;-61
2022/03/20 09:40:07;;;;;;;14.57;13.47;;;16.90;19.10;;;;;;4982253;28;20437;-63
2022/03/20 09:42:35;;;;;;;14.73;13.37;;;17.20;18.60;;;;;;4966600;28;20550;-63
2022/03/20 09:45:01;;;;;;;15.43;14.13;;;17.40;18.70;;;;;;4967158;28;20454;-62
2022/03/20 09:47:27;;;;;;;15.63;14.27;;;17.40;18.10;;;;;;4965422;28;20442;-62
2022/03/20 09:49:55;;;;;;;15.17;13.87;;;17.60;18.40;;;;;;4967425;28;20189;-61
2022/03/20 09:52:22;;;;;;;14.93;13.70;;;17.90;17.40;;;;;;4966198;28;20287;-63
2022/03/20 09:54:48;;;;;;;14.10;13.00;;;18.00;17.40;;;;;;4973220;28;20435;-61
2022/03/20 09:57:15;;;;;;;14.63;13.43;;;18.30;17.50;;;;;;4970238;28;20837;-61
2022/03/20 09:59:41;;;;;;;14.20;13.00;;;19.20;17.50;;;;;;4997432;28;20967;-61
2022/03/20 10:02:08;;;;;;;14.07;12.87;;;18.90;16.40;;;;;;4993605;28;20433;-62
2022/03/20 10:04:59;;;;;;;15.70;14.40;;;18.80;16.10;;;;;;5001836;28;20187;-62
2022/03/20 10:07:31;;;;;;;14.77;13.57;;;18.40;15.40;;;;;;4988425;28;20463;-62
2022/03/20 10:10:06;;;;;;;14.63;13.40;;;18.40;15.80;;;;;;4980937;28;20459;-62
2022/03/20 10:12:34;;;;;;;14.47;13.33;;;18.30;15.10;;;;;;4995060;28;20463;-60
2022/03/20 10:14:59;;;;;;;15.17;13.77;;;17.90;15.30;;;;;;4984164;28;20470;-61
2022/03/20 10:17:25;;;;;;;14.60;13.30;;;17.60;15.50;;;;;;4986972;28;20481;-61
2022/03/20 10:19:50;;;;;;;14.47;13.17;;;17.70;16.10;;;;;;4986211;28;20203;-62
2022/03/20 10:22:17;;;;;;;13.27;12.07;;;17.50;15.10;;;;;;4988138;28;20253;-61
2022/03/20 10:24:51;;;;;;;12.97;11.80;;;17.90;16.00;;;;;;4987526;28;20722;-62
2022/03/20 10:27:17;;;;;;;13.87;12.67;;;17.90;14.50;;;;;;4979318;28;20483;-62
2022/03/20 10:29:57;;;;;;;13.43;12.23;;;17.90;15.00;;;;;;4988070;28;20894;-61
2022/03/20 10:32:24;;;;;;;13.63;12.53;;;18.50;15.50;;;;;;4978651;28;20478;-61
2022/03/20 10:34:51;;;;;;;14.73;13.50;;;18.90;14.80;;;;;;4993513;28;20435;-61
2022/03/20 10:37:18;;;;;;;13.70;12.50;;;18.90;14.10;;;;;;4993237;28;20439;-61
2022/03/20 10:39:45;;;;;;;13.60;12.53;;;18.30;14.50;;;;;;4994638;28;20868;-61
2022/03/20 10:42:15;;;;;;;13.53;12.33;;;18.80;14.00;;;;;;4993780;28;20468;-61
2022/03/20 10:44:42;;;;;;;13.57;12.40;;;18.30;13.80;;;;;;4993119;28;20474;-61
2022/03/20 10:47:13;;;;;;;13.80;12.60;;;18.20;14.20;;;;;;4993773;28;20471;-61
2022/03/20 10:50:08;;;;;;;12.90;11.80;;;18.40;14.20;;;;;;4992491;28;21218;-61
2022/03/20 10:52:36;;;;;;;12.80;11.80;;;18.60;14.50;;;;;;4974257;28;20461;-60
2022/03/20 10:55:10;;;;;;;12.33;11.23;;;18.50;13.60;;;;;;4992773;28;20427;-60
2022/03/20 10:57:36;;;;;;;10.97;10.10;;;18.30;13.70;;;;;;4981134;28;20415;-61
2022/03/20 11:00:13;;;;;;;11.07;10.20;;;18.60;13.30;;;;;;4993561;28;20431;-60
2022/03/20 11:02:40;;;;;;;12.50;11.40;;;18.60;13.20;;;;;;4982185;28;20441;-60
2022/03/20 11:05:08;;;;;;;12.67;11.60;;;18.60;14.20;;;;;;4993559;28;20411;-60
2022/03/20 11:07:35;;;;;;;12.60;11.60;;;19.30;13.40;;;;;;4993200;28;20793;-61
2022/03/20 11:10:00;;;;;;;12.57;11.57;;;19.30;12.90;;;;;;4991063;28;21370;-61
2022/03/20 11:12:33;;;;;;;12.47;11.47;;;18.70;13.20;;;;;;4992823;28;20434;-61
2022/03/20 11:15:01;;;;;;;11.97;10.97;;;18.90;13.00;;;;;;4993424;28;20220;-61
2022/03/20 11:17:37;;;;;;;11.67;10.70;;;19.10;13.80;;;;;;4993535;28;20430;-61
2022/03/20 11:20:06;;;;;;;10.37;9.63;;;19.70;12.80;;;;;;4971488;28;20435;-61
2022/03/20 11:22:36;;;;;;;10.00;9.23;;;19.70;12.30;;;;;;4992112;28;20443;-61
2022/03/20 11:25:03;;;;;;;10.17;9.37;;;18.90;11.30;;;;;;4991694;28;20439;-60
2022/03/20 11:27:30;;;;;;;9.80;9.20;;;18.50;11.60;;;;;;4993442;28;20513;-61
2022/03/20 11:30:09;;;;;;;11.33;10.37;;;17.70;11.90;;;;;;4992635;28;20929;-61
2022/03/20 11:32:35;;;;;;;11.10;10.20;;;17.50;12.80;;;;;;4992056;28;20490;-61
2022/03/20 11:35:05;;;;;;;11.60;10.60;;;17.50;12.50;;;;;;4992984;28;20513;-61
2022/03/20 11:37:50;;;;;;;10.67;9.87;;;17.70;12.60;;;;;;4991949;28;20514;-61
2022/03/20 11:40:22;;;;;;;10.93;10.13;;;18.10;12.80;;;;;;4992109;28;20427;-61
2022/03/20 11:42:49;;;;;;;11.10;10.20;;;18.60;12.70;;;;;;4991176;28;20443;-61
2022/03/20 11:45:19;;;;;;;11.40;10.50;;;19.20;12.80;;;;;;4992471;28;20392;-60
2022/03/20 11:47:48;;;;;;;10.63;9.83;;;18.80;11.60;;;;;;4995877;28;20831;-60
2022/03/20 11:50:19;;;;;;;10.83;9.93;;;19.10;12.40;;;;;;5001399;28;20485;-60
2022/03/20 11:52:48;;;;;;;10.37;9.53;;;19.50;12.10;;;;;;4990195;28;21031;-61
2022/03/20 11:55:38;;;;;;;10.83;9.93;;;19.60;11.80;;;;;;4997643;28;20440;-61
2022/03/20 11:58:31;;;;;;;11.50;10.50;;;20.20;12.20;;;;;;4992227;28;20441;-61
2022/03/20 12:01:09;;;;;;;10.03;9.23;;;20.40;11.50;;;;;;4991286;28;20953;-61
2022/03/20 12:04:03;;;;;;;10.70;9.90;;;20.80;11.50;;;;;;4988963;28;20437;-61
2022/03/20 12:06:51;;;;;;;11.30;10.40;;;20.90;11.70;;;;;;4991925;28;20544;-61
2022/03/20 12:09:28;;;;;;;10.10;9.20;;;21.30;11.70;;;;;;4971394;28;20492;-61
2022/03/20 12:12:12;;;;;;;11.90;10.70;;;21.30;11.30;;;;;;4986356;28;20439;-62
2022/03/20 12:14:41;;;;;;;11.40;10.60;;;21.50;11.50;;;;;;5000640;28;20483;-61
2022/03/20 12:17:08;;;;;;;10.67;9.87;;;21.60;11.20;;;;;;4991990;28;20467;-61
2022/03/20 12:19:48;;;;;;;10.27;9.47;;;21.50;11.00;;;;;;4991949;28;20523;-61
2022/03/20 12:22:28;;;;;;;9.93;9.23;;;21.60;11.40;;;;;;4991084;28;20453;-61
2022/03/20 12:24:57;;;;;;;11.07;10.27;;;21.90;11.60;;;;;;4991793;28;20423;-61
2022/03/20 12:27:22;;;;;;;11.73;10.77;;;22.10;11.30;;;;;;4990671;28;20463;-62
2022/03/20 12:29:51;;;;;;;10.83;9.93;;;21.80;10.90;;;;;;4970750;28;20429;-62
2022/03/20 12:32:18;;;;;;;12.03;11.13;;;22.00;11.00;;;;;;4992055;28;20211;-61
2022/03/20 12:35:03;;;;;;;10.33;9.53;;;21.70;10.80;;;;;;4990860;28;20449;-61
2022/03/20 12:37:33;;;;;;;10.37;9.50;;;22.40;11.70;;;;;;4964393;28;20463;-62
2022/03/20 12:40:08;;;;;;;11.70;10.70;;;22.60;10.90;;;;;;4990060;28;20431;-62
2022/03/20 12:42:37;;;;;;;11.00;10.10;;;22.30;10.90;;;;;;4991634;28;20897;-62
2022/03/20 12:45:04;;;;;;;9.73;8.93;;;22.50;11.00;;;;;;4990073;28;20436;-62
2022/03/20 12:47:30;;;;;;;9.20;8.50;;;22.50;10.40;;;;;;4992080;28;20477;-62
2022/03/20 12:50:05;;;;;;;10.60;9.73;;;22.20;10.30;;;;;;4991528;28;21287;-61
2022/03/20 12:52:32;;;;;;;9.87;9.07;;;21.80;10.00;;;;;;4989649;28;20199;-61
2022/03/20 12:55:00;;;;;;;9.67;8.87;;;20.90;9.70;;;;;;4990591;28;20507;-61
2022/03/20 12:57:42;;;;;;;10.60;9.70;;;19.10;10.50;;;;;;4988364;28;20466;-61
2022/03/20 13:00:17;;;;;;;10.03;9.33;;;19.30;11.50;;;;;;4987668;28;20544;-61
2022/03/20 13:02:58;;;;;;;9.20;8.47;;;18.60;10.80;;;;;;4983089;28;20456;-62
2022/03/20 13:05:29;;;;;;;10.60;9.80;;;17.80;12.10;;;;;;4989060;28;20980;-62
2022/03/20 13:07:55;;;;;;;10.47;9.73;;;18.00;12.20;;;;;;4990610;28;20439;-61
2022/03/20 13:10:31;;;;;;;10.73;9.80;;;18.70;13.10;;;;;;4990405;28;20427;-61
2022/03/20 13:13:01;;;;;;;10.23;9.43;;;19.70;13.50;;;;;;4989092;28;20446;-62